This is the latest recevied weather packets stored in our database for station/object KF7IOR. If no packets are shown the sender has not sent any weather packets the latest 10 day(s).
| Time | Temp. | Humidity | Pressure | Rain* | Wind** | Luminosity | Snow |
|---|---|---|---|---|---|---|---|
| 1777470038 | 3.89° C | 89% | 1024.6 hPa | 0 mm | - | 18 W/m² | - |
| 1777467040 | 3.89° C | 89% | 1024.4 hPa | 0 mm | - | 0 W/m² | - |
| 1777466137 | 3.89° C | 88% | 1024.3 hPa | 0 mm | - | 0 W/m² | - |
| 1777464639 | 4.44° C | 88% | 1024.2 hPa | 0 mm | - | 0 W/m² | - |
| 1777463436 | 4.44° C | 87% | 1024.2 hPa | 0 mm | - | 0 W/m² | - |
| 1777461936 | 5° C | 87% | 1024.1 hPa | 0 mm | - | 0 W/m² | - |
| 1777460735 | 5° C | 86% | 1024 hPa | 0 mm | - | 0 W/m² | - |
| 1777458338 | 5.56° C | 85% | 1023.8 hPa | 0 mm | - | 0 W/m² | - |
| 1777456867 | 6.11° C | 83% | 1023.8 hPa | 0 mm | - | 0 W/m² | - |
| 1777455337 | 6.67° C | 81% | 1023.8 hPa | 0 mm | - | 0 W/m² | - |
| 1777449335 | 8.89° C | 75% | 1024 hPa | 0 mm | - | 0 W/m² | - |
| 1777447235 | 8.89° C | 76% | 1024 hPa | 0 mm | - | 0 W/m² | - |
| 1777446635 | 8.89° C | 76% | 1023.9 hPa | 0 mm | - | 0 W/m² | - |
| 1777445436 | 8.89° C | 74% | 1023.6 hPa | 0 mm | - | 0 W/m² | - |
| 1777443345 | 9.44° C | 73% | 1023.6 hPa | 0 mm | - | 0 W/m² | - |
| 1777440647 | 10° C | 73% | 1023.6 hPa | 0 mm | - | 0 W/m² | - |
| 1777438235 | 10.56° C | 72% | 1023.2 hPa | 0 mm | - | 0 W/m² | - |
| 1777437340 | 10.56° C | 70% | 1023.2 hPa | 0 mm | - | 0 W/m² | - |
| 1777436144 | 11.11° C | 68% | 1023.2 hPa | 0 mm | - | 0 W/m² | - |
| 1777435250 | 11.67° C | 65% | 1023 hPa | 0 mm | - | 0 W/m² | - |
| 1777434347 | 11.67° C | 63% | 1022.8 hPa | 0 mm | - | 0 W/m² | - |
| 1777431036 | 12.78° C | 59% | 1022.4 hPa | 0 mm | - | 18 W/m² | - |
| 1777430135 | 13.33° C | 58% | 1022.4 hPa | 0 mm | - | 33 W/m² | - |
| 1777428636 | 13.89° C | 56% | 1022.4 hPa | 0 mm | - | 49 W/m² | - |
| 1777427734 | 13.89° C | 55% | 1022.4 hPa | 0 mm | - | 76 W/m² | - |
* Rain latest hour (hover to see other rain measurements)
** Current wind speed in m/s (hover to see current wind gust speed)